createdAt,value
2023-03-27T00:01:48.283Z,0.99
2023-03-27T00:04:20.078Z,1.05
2023-03-27T00:06:50.241Z,1.06
2023-03-27T00:09:21.936Z,1.29
2023-03-27T00:11:56.345Z,1.32
2023-03-27T00:14:26.810Z,1.40
2023-03-27T00:16:57.501Z,1.40
2023-03-27T00:19:27.574Z,1.31
2023-03-27T00:21:57.757Z,1.51
2023-03-27T00:24:28.005Z,1.44
2023-03-27T00:27:00.704Z,1.52
2023-03-27T00:29:30.735Z,1.42
2023-03-27T00:32:00.686Z,1.53
2023-03-27T00:34:31.572Z,1.39
2023-03-27T00:37:04.765Z,1.35
2023-03-27T00:39:35.730Z,1.53
2023-03-27T00:42:08.813Z,1.57
2023-03-27T00:44:39.751Z,1.58
2023-03-27T00:47:12.897Z,1.63
2023-03-27T00:49:42.994Z,1.91
2023-03-27T00:52:13.848Z,1.65
2023-03-27T00:54:43.865Z,1.88
2023-03-27T00:57:22.201Z,2.80
2023-03-27T00:59:57.708Z,3.73
2023-03-27T01:02:28.089Z,4.00
2023-03-27T01:05:00.192Z,4.18
2023-03-27T01:07:30.451Z,4.47
2023-03-27T01:10:01.357Z,5.48
2023-03-27T01:12:46.837Z,5.56
2023-03-27T01:15:34.363Z,5.64
2023-03-27T01:18:18.607Z,5.79
2023-03-27T01:21:14.075Z,5.98
2023-03-27T01:24:13.031Z,5.86
2023-03-27T01:27:01.673Z,6.28
2023-03-27T01:29:54.741Z,6.24
2023-03-27T01:33:01.027Z,5.89
2023-03-27T01:36:06.018Z,5.27
2023-03-27T01:39:17.358Z,5.01
2023-03-27T01:41:58.759Z,4.84
2023-03-27T01:44:43.870Z,4.61
2023-03-27T01:47:26.330Z,4.72
2023-03-27T01:50:07.195Z,4.73
2023-03-27T01:52:43.730Z,4.76
2023-03-27T01:55:21.652Z,4.66
2023-03-27T01:58:00.612Z,4.76
2023-03-27T02:00:51.892Z,4.91
2023-03-27T02:03:28.134Z,4.63
2023-03-27T02:06:03.677Z,4.45
2023-03-27T02:08:40.516Z,4.34
2023-03-27T02:11:26.630Z,4.14
2023-03-27T02:14:04.404Z,4.05
2023-03-27T02:16:42.768Z,4.02
2023-03-27T02:19:20.974Z,3.89
2023-03-27T02:21:51.935Z,4.02
2023-03-27T02:24:24.539Z,4.16
2023-03-27T02:27:06.232Z,3.94
2023-03-27T02:29:52.906Z,4.10
2023-03-27T02:32:40.344Z,3.83
2023-03-27T02:35:30.827Z,3.93
2023-03-27T02:38:11.827Z,4.24
2023-03-27T02:40:58.980Z,4.06
2023-03-27T02:44:16.942Z,4.12
2023-03-27T02:47:07.537Z,4.14
2023-03-27T02:49:43.868Z,3.92
2023-03-27T02:52:21.388Z,3.97
2023-03-27T02:54:59.398Z,3.90
2023-03-27T02:57:34.296Z,3.72
2023-03-27T03:00:37.631Z,3.74
2023-03-27T03:03:41.967Z,3.59
2023-03-27T03:06:29.989Z,3.79
2023-03-27T03:09:05.633Z,3.82
2023-03-27T03:11:37.819Z,3.43
2023-03-27T03:14:08.508Z,3.25
2023-03-27T03:16:41.333Z,3.34
2023-03-27T03:19:11.635Z,3.53
2023-03-27T03:21:41.811Z,3.17
2023-03-27T03:24:14.420Z,3.51
2023-03-27T03:26:45.339Z,3.42
2023-03-27T03:29:15.567Z,3.57
2023-03-27T03:31:56.304Z,4.03
2023-03-27T03:34:28.020Z,4.68
2023-03-27T03:36:58.125Z,4.30
2023-03-27T03:39:33.164Z,4.90
2023-03-27T03:42:03.187Z,4.71
2023-03-27T03:44:34.704Z,4.58
2023-03-27T03:47:17.860Z,4.30
2023-03-27T03:49:47.756Z,4.27
2023-03-27T03:52:17.888Z,3.83
2023-03-27T03:54:47.828Z,4.26
2023-03-27T03:57:18.657Z,4.16
2023-03-27T04:00:02.496Z,4.14
2023-03-27T04:02:57.258Z,4.27
2023-03-27T04:05:27.789Z,4.79
2023-03-27T04:08:02.910Z,4.36
2023-03-27T04:10:35.947Z,4.18
2023-03-27T04:13:09.633Z,4.40
2023-03-27T04:15:43.664Z,4.50
2023-03-27T04:18:33.043Z,4.58
2023-03-27T04:21:06.390Z,4.98
2023-03-27T04:23:36.357Z,4.60
2023-03-27T04:26:06.722Z,4.85
2023-03-27T04:28:59.607Z,4.43
2023-03-27T04:31:55.457Z,3.83
2023-03-27T04:34:46.017Z,3.83
2023-03-27T04:37:39.673Z,4.42
2023-03-27T04:40:29.782Z,4.52
2023-03-27T04:43:00.075Z,4.59
2023-03-27T04:45:32.474Z,3.93
2023-03-27T04:48:04.085Z,4.08
2023-03-27T04:50:38.473Z,4.18
2023-03-27T04:53:08.961Z,4.64
2023-03-27T04:55:43.316Z,4.47
2023-03-27T04:58:13.284Z,4.47
2023-03-27T05:00:44.033Z,5.08
2023-03-27T05:03:43.283Z,4.16
2023-03-27T05:06:26.727Z,4.07
2023-03-27T05:08:57.027Z,4.60
2023-03-27T05:11:30.820Z,4.61
2023-03-27T05:14:01.061Z,4.40
2023-03-27T05:16:33.887Z,4.50
2023-03-27T05:19:06.178Z,4.49
2023-03-27T05:21:54.591Z,4.14
2023-03-27T05:24:24.621Z,4.20
2023-03-27T05:26:54.736Z,3.49
2023-03-27T05:29:25.102Z,3.37
2023-03-27T05:32:04.693Z,3.53
2023-03-27T05:34:54.741Z,3.07
2023-03-27T05:37:30.142Z,3.83
2023-03-27T05:40:25.303Z,3.88
2023-03-27T05:42:57.047Z,3.39
2023-03-27T05:45:31.483Z,3.65
2023-03-27T05:48:04.050Z,3.71
2023-03-27T05:50:39.394Z,3.36
2023-03-27T05:53:20.174Z,3.29
2023-03-27T05:56:18.561Z,3.46
2023-03-27T05:58:55.818Z,4.16
2023-03-27T06:01:28.131Z,4.72
2023-03-27T06:04:01.143Z,3.50
2023-03-27T06:06:55.558Z,3.97
2023-03-27T06:09:28.237Z,3.69
2023-03-27T06:12:19.070Z,3.61
2023-03-27T06:14:51.491Z,3.64
2023-03-27T06:17:34.558Z,3.85
2023-03-27T06:20:11.529Z,3.81
2023-03-27T06:22:46.877Z,3.95
2023-03-27T06:25:23.034Z,3.90
2023-03-27T06:27:53.569Z,4.07
2023-03-27T06:30:25.984Z,3.98
2023-03-27T06:33:22.316Z,3.75
2023-03-27T06:35:53.729Z,4.55
2023-03-27T06:38:33.561Z,4.63
2023-03-27T06:41:10.696Z,4.19
2023-03-27T06:44:00.000Z,4.14
2023-03-27T06:46:53.221Z,3.60
2023-03-27T06:49:33.820Z,3.78
2023-03-27T06:52:12.573Z,4.12
2023-03-27T06:54:42.983Z,6.60
2023-03-27T06:57:16.134Z,4.35
2023-03-27T06:59:55.521Z,3.03
2023-03-27T07:02:29.901Z,3.62
2023-03-27T07:05:41.106Z,4.37
2023-03-27T07:08:23.139Z,4.26
2023-03-27T07:13:30.862Z,3.49
2023-03-27T07:16:04.023Z,3.77
2023-03-27T07:18:36.348Z,3.31
2023-03-27T07:21:08.369Z,3.75
2023-03-27T07:23:38.540Z,3.87
2023-03-27T07:26:11.901Z,4.00
2023-03-27T07:29:11.439Z,3.83
2023-03-27T07:34:22.059Z,4.12
2023-03-27T07:37:22.865Z,3.66
2023-03-27T07:40:16.535Z,3.45
2023-03-27T07:42:57.040Z,3.38
2023-03-27T07:45:29.876Z,3.32
2023-03-27T07:48:08.812Z,3.16
2023-03-27T07:50:40.492Z,3.01
2023-03-27T07:53:33.809Z,3.05
2023-03-27T07:56:04.239Z,3.22
2023-03-27T07:58:35.128Z,3.24
2023-03-27T08:01:08.376Z,3.35
2023-03-27T08:03:39.604Z,3.00
2023-03-27T08:06:11.261Z,3.10
2023-03-27T08:08:41.528Z,3.04
2023-03-27T08:11:23.247Z,3.06
2023-03-27T08:14:00.187Z,3.13
2023-03-27T08:16:33.860Z,3.28
2023-03-27T08:19:04.699Z,3.06
2023-03-27T08:21:38.699Z,3.25
2023-03-27T08:24:10.028Z,2.95
2023-03-27T08:27:00.449Z,3.11
2023-03-27T08:29:30.510Z,3.40
2023-03-27T08:32:03.486Z,3.47
2023-03-27T08:34:33.850Z,3.16
2023-03-27T08:37:04.277Z,2.99
2023-03-27T08:39:42.510Z,3.52
2023-03-27T08:42:22.024Z,3.39
2023-03-27T08:44:58.178Z,4.67
2023-03-27T08:47:53.708Z,2.81
2023-03-27T08:50:39.277Z,3.03
2023-03-27T08:53:24.355Z,2.87
2023-03-27T08:55:54.775Z,2.91
2023-03-27T08:58:36.227Z,3.16
2023-03-27T09:01:27.425Z,3.13
2023-03-27T09:04:14.837Z,3.00
2023-03-27T09:07:01.403Z,2.88
2023-03-27T09:09:53.940Z,2.93
2023-03-27T09:12:42.845Z,3.73
2023-03-27T09:15:19.236Z,3.95
2023-03-27T09:17:59.279Z,2.88
2023-03-27T09:20:37.577Z,2.72
2023-03-27T09:23:20.933Z,2.44
2023-03-27T09:26:15.016Z,2.62
2023-03-27T09:29:07.395Z,2.37
2023-03-27T09:31:49.590Z,2.60
2023-03-27T09:34:27.204Z,2.86
2023-03-27T09:37:02.977Z,2.75
2023-03-27T09:39:37.207Z,2.74
2023-03-27T09:42:25.071Z,2.57
2023-03-27T09:44:59.119Z,2.31
2023-03-27T09:47:39.432Z,2.19
2023-03-27T09:50:27.862Z,5.46
2023-03-27T09:53:17.039Z,3.85
2023-03-27T09:56:16.439Z,2.25
2023-03-27T09:58:54.381Z,2.19
2023-03-27T10:01:34.619Z,2.21
2023-03-27T10:04:18.681Z,2.32
2023-03-27T10:07:00.114Z,2.28
2023-03-27T10:10:12.236Z,2.06
2023-03-27T10:13:06.100Z,1.91
2023-03-27T10:15:44.395Z,2.52
2023-03-27T10:18:27.944Z,2.34
2023-03-27T10:21:13.419Z,2.47
2023-03-27T10:23:46.380Z,2.94
2023-03-27T10:26:44.773Z,3.24
2023-03-27T10:29:26.182Z,2.56
2023-03-27T10:31:59.251Z,2.76
2023-03-27T10:34:57.410Z,3.03
2023-03-27T10:37:35.502Z,2.87
2023-03-27T10:40:22.260Z,2.68
2023-03-27T10:43:07.616Z,2.26
2023-03-27T10:45:50.622Z,2.51
2023-03-27T10:48:37.433Z,2.87
2023-03-27T10:51:19.238Z,2.61
2023-03-27T10:54:03.280Z,2.21
2023-03-27T10:56:57.267Z,2.30
2023-03-27T10:59:41.804Z,2.54
2023-03-27T11:02:27.302Z,2.42
2023-03-27T11:05:05.150Z,2.56
2023-03-27T11:07:45.778Z,2.56
2023-03-27T11:10:25.125Z,2.49
2023-03-27T11:13:01.498Z,2.45
2023-03-27T11:15:42.380Z,2.09
2023-03-27T11:18:40.029Z,2.18
2023-03-27T11:21:18.132Z,2.06
2023-03-27T11:24:03.995Z,2.18
2023-03-27T11:26:56.031Z,2.25
2023-03-27T11:29:32.354Z,2.35
2023-03-27T11:32:18.654Z,2.15
2023-03-27T11:35:02.625Z,2.36
2023-03-27T11:37:51.800Z,2.48
2023-03-27T11:40:28.792Z,3.02
2023-03-27T11:43:05.596Z,2.82
2023-03-27T11:45:47.649Z,2.59
2023-03-27T11:48:58.745Z,2.43
2023-03-27T11:51:42.905Z,2.95
2023-03-27T11:54:28.756Z,2.93
2023-03-27T11:57:08.750Z,2.64
2023-03-27T12:00:16.488Z,3.42
2023-03-27T12:03:28.939Z,2.88
2023-03-27T12:06:16.914Z,2.96
2023-03-27T12:09:08.033Z,26.71
2023-03-27T12:12:06.632Z,4.21
2023-03-27T12:14:51.269Z,2.20
2023-03-27T12:17:50.220Z,2.07
2023-03-27T12:20:48.672Z,1.86
2023-03-27T12:23:49.433Z,2.52
2023-03-27T12:27:24.320Z,1.77
2023-03-27T12:30:35.225Z,1.81
2023-03-27T12:33:32.795Z,1.79
2023-03-27T12:36:09.362Z,2.01
2023-03-27T12:38:45.536Z,3.38
2023-03-27T12:41:24.601Z,2.32
2023-03-27T12:44:05.029Z,1.96
2023-03-27T12:46:42.352Z,2.74
2023-03-27T12:49:47.684Z,2.35
2023-03-27T12:52:25.560Z,2.52
2023-03-27T12:55:38.352Z,3.06
2023-03-27T12:58:38.396Z,2.30
2023-03-27T13:01:52.814Z,2.43
2023-03-27T13:04:46.917Z,2.09
2023-03-27T13:07:30.188Z,2.34
2023-03-27T13:10:26.996Z,2.67
2023-03-27T13:13:18.664Z,2.35
2023-03-27T13:16:14.252Z,2.18
2023-03-27T13:19:08.248Z,2.80
2023-03-27T13:22:09.009Z,2.34
2023-03-27T13:25:00.182Z,3.10
2023-03-27T13:27:50.596Z,2.77
2023-03-27T13:30:44.553Z,2.68
2023-03-27T13:33:48.541Z,2.44
2023-03-27T13:36:34.633Z,3.36
2023-03-27T13:39:21.252Z,2.41
2023-03-27T13:42:02.371Z,2.93
2023-03-27T13:44:57.189Z,2.35
2023-03-27T13:47:56.242Z,2.55
2023-03-27T13:50:55.692Z,2.63
2023-03-27T13:53:46.494Z,1.89
2023-03-27T13:56:51.302Z,3.52
2023-03-27T14:00:27.785Z,2.50
2023-03-27T14:03:52.718Z,2.45
2023-03-27T14:06:52.930Z,2.53
2023-03-27T14:09:41.056Z,2.57
2023-03-27T14:12:28.162Z,2.90
2023-03-27T14:15:47.413Z,3.31
2023-03-27T14:19:03.769Z,3.01
2023-03-27T14:21:53.686Z,3.41
2023-03-27T14:24:34.793Z,3.61
2023-03-27T14:27:28.047Z,2.69
2023-03-27T14:30:09.323Z,2.33
2023-03-27T14:32:47.252Z,2.02
2023-03-27T14:35:37.012Z,1.84
2023-03-27T14:38:22.128Z,1.41
2023-03-27T14:40:53.222Z,1.59
2023-03-27T14:43:32.885Z,1.43
2023-03-27T14:46:07.294Z,1.20
2023-03-27T14:48:45.257Z,1.21
2023-03-27T14:51:20.946Z,1.09
2023-03-27T14:53:59.631Z,1.15
2023-03-27T14:56:47.768Z,2.23
2023-03-27T14:59:28.614Z,2.01
2023-03-27T15:02:07.933Z,1.47
2023-03-27T15:04:44.124Z,1.01
2023-03-27T15:07:21.829Z,1.44
2023-03-27T15:10:28.208Z,1.00
2023-03-27T15:13:12.445Z,0.76
2023-03-27T15:15:53.626Z,0.78
2023-03-27T15:18:34.388Z,0.96
2023-03-27T15:21:17.221Z,0.95
2023-03-27T15:23:58.963Z,0.96
2023-03-27T15:26:35.332Z,1.07
2023-03-27T15:29:14.096Z,1.10
2023-03-27T15:31:49.219Z,1.35
2023-03-27T15:34:34.209Z,1.10
2023-03-27T15:37:13.234Z,0.99
2023-03-27T15:40:06.426Z,1.06
2023-03-27T15:42:49.279Z,1.57
2023-03-27T15:45:22.884Z,1.35
2023-03-27T15:48:05.763Z,1.21
2023-03-27T15:50:36.795Z,1.43
2023-03-27T15:53:09.463Z,1.02
2023-03-27T15:55:44.312Z,1.68
2023-03-27T15:58:23.603Z,2.11
2023-03-27T16:01:00.038Z,1.94
2023-03-27T16:03:36.077Z,1.43
2023-03-27T16:06:08.046Z,1.51
2023-03-27T16:08:46.802Z,1.86
2023-03-27T16:11:36.229Z,1.46
2023-03-27T16:14:06.295Z,1.40
2023-03-27T16:16:37.739Z,1.16
2023-03-27T16:19:15.713Z,1.38
2023-03-27T16:21:57.864Z,1.14
2023-03-27T16:24:30.682Z,0.97
2023-03-27T16:27:00.991Z,1.03
2023-03-27T16:29:31.032Z,1.30
2023-03-27T16:32:01.234Z,1.10
2023-03-27T16:34:31.365Z,1.26
2023-03-27T16:37:01.739Z,1.17
2023-03-27T16:39:34.305Z,1.34
2023-03-27T16:42:04.331Z,1.01
2023-03-27T16:44:34.497Z,0.96
2023-03-27T16:47:04.545Z,1.21
2023-03-27T16:49:34.518Z,1.12
2023-03-27T16:52:04.694Z,1.57
2023-03-27T16:54:37.359Z,1.80
2023-03-27T16:57:07.520Z,1.06
2023-03-27T16:59:37.544Z,1.03
2023-03-27T17:02:07.687Z,1.43
2023-03-27T17:04:37.889Z,1.25
2023-03-27T17:07:08.569Z,1.69
2023-03-27T17:09:41.207Z,1.81
2023-03-27T17:12:11.752Z,1.88
2023-03-27T17:14:41.855Z,1.61
2023-03-27T17:17:12.099Z,1.59
2023-03-27T17:19:42.042Z,1.71
2023-03-27T17:22:12.409Z,2.07
2023-03-27T17:24:56.256Z,2.14
2023-03-27T17:27:27.718Z,1.75
2023-03-27T17:29:58.342Z,1.85
2023-03-27T17:32:29.009Z,1.72
2023-03-27T17:34:59.075Z,1.70
2023-03-27T17:37:29.191Z,1.51
2023-03-27T17:40:01.804Z,1.82
2023-03-27T17:42:31.836Z,2.01
2023-03-27T17:45:01.784Z,2.04
2023-03-27T17:47:31.883Z,2.37
2023-03-27T17:50:01.970Z,2.30
2023-03-27T17:52:34.037Z,2.44
2023-03-27T17:55:07.129Z,2.29
2023-03-27T17:57:39.559Z,2.42
2023-03-27T18:00:11.789Z,2.39
2023-03-27T18:02:45.900Z,2.43
2023-03-27T18:05:16.033Z,2.78
2023-03-27T18:07:46.048Z,3.28
2023-03-27T18:10:20.529Z,2.99
2023-03-27T18:12:50.733Z,3.78
2023-03-27T18:15:21.101Z,3.36
2023-03-27T18:17:51.127Z,3.31
2023-03-27T18:20:21.421Z,3.05
2023-03-27T18:22:51.441Z,3.05
2023-03-27T18:25:24.493Z,3.05
2023-03-27T18:27:54.511Z,3.34
2023-03-27T18:30:24.735Z,2.94
2023-03-27T18:32:54.923Z,3.61
2023-03-27T18:35:25.201Z,2.92
2023-03-27T18:37:55.253Z,3.67
2023-03-27T18:40:27.973Z,3.30
2023-03-27T18:42:58.008Z,2.86
2023-03-27T18:45:28.101Z,2.39
2023-03-27T18:47:58.137Z,3.37
2023-03-27T18:50:28.180Z,3.20
2023-03-27T18:52:58.127Z,2.91
2023-03-27T18:55:31.034Z,3.29
2023-03-27T18:58:01.071Z,3.64
2023-03-27T19:00:31.081Z,11.57
2023-03-27T19:03:01.779Z,8.12
2023-03-27T19:05:31.814Z,3.52
2023-03-27T19:08:01.826Z,3.14
2023-03-27T19:10:40.462Z,2.86
2023-03-27T19:13:21.326Z,3.14
2023-03-27T19:16:14.347Z,2.94
2023-03-27T19:19:08.713Z,2.98
2023-03-27T19:21:57.195Z,3.37
2023-03-27T19:24:33.877Z,3.40
2023-03-27T19:27:07.394Z,3.75
2023-03-27T19:29:54.635Z,4.12
2023-03-27T19:32:24.954Z,4.33
2023-03-27T19:34:54.974Z,4.08
2023-03-27T19:37:25.015Z,3.64
2023-03-27T19:39:55.355Z,3.45
2023-03-27T19:42:28.735Z,3.10
2023-03-27T19:44:58.746Z,3.05
2023-03-27T19:47:28.986Z,2.84
2023-03-27T19:50:00.115Z,2.70
2023-03-27T19:52:36.219Z,2.60
2023-03-27T19:55:07.157Z,2.74
2023-03-27T19:57:40.058Z,2.65
2023-03-27T20:00:13.029Z,2.26
2023-03-27T20:02:45.879Z,2.39
2023-03-27T20:05:16.158Z,2.32
2023-03-27T20:07:46.311Z,2.15
2023-03-27T20:10:16.281Z,2.42
2023-03-27T20:12:48.865Z,2.53
2023-03-27T20:15:18.889Z,2.67
2023-03-27T20:17:48.863Z,2.42
2023-03-27T20:20:20.043Z,2.32
2023-03-27T20:22:57.630Z,2.24
2023-03-27T20:25:32.415Z,2.41
2023-03-27T20:28:07.085Z,2.36
2023-03-27T20:30:40.801Z,2.35
2023-03-27T20:33:11.243Z,2.01
2023-03-27T20:35:44.718Z,1.76
2023-03-27T20:38:15.096Z,1.73
2023-03-27T20:40:53.192Z,1.68
2023-03-27T20:43:31.085Z,1.69
2023-03-27T20:46:01.814Z,1.75
2023-03-27T20:48:40.357Z,2.17
2023-03-27T20:51:14.887Z,1.87
2023-03-27T20:53:45.518Z,1.88
2023-03-27T20:56:17.061Z,1.71
2023-03-27T20:58:50.432Z,1.62
2023-03-27T21:01:27.965Z,1.62
2023-03-27T21:03:58.766Z,1.49
2023-03-27T21:06:28.885Z,1.45
2023-03-27T21:08:58.872Z,1.63
2023-03-27T21:11:28.890Z,1.61
2023-03-27T21:14:01.693Z,1.53
2023-03-27T21:16:32.135Z,1.82
2023-03-27T21:19:02.116Z,1.55
2023-03-27T21:21:36.853Z,1.65
2023-03-27T21:24:07.308Z,2.77
2023-03-27T21:26:38.097Z,2.59
2023-03-27T21:29:11.322Z,3.55
2023-03-27T21:31:41.728Z,4.00
2023-03-27T21:34:11.727Z,3.97
2023-03-27T21:36:41.807Z,3.98
2023-03-27T21:39:13.406Z,4.15
2023-03-27T21:41:43.430Z,4.58
2023-03-27T21:44:16.034Z,4.21
2023-03-27T21:46:46.045Z,4.37
2023-03-27T21:49:16.145Z,4.40
2023-03-27T21:51:46.553Z,4.32
2023-03-27T21:54:16.544Z,4.58
2023-03-27T21:56:46.561Z,4.57
2023-03-27T21:59:19.310Z,4.84
2023-03-27T22:01:49.328Z,4.70
2023-03-27T22:04:21.631Z,4.86
2023-03-27T22:06:54.720Z,5.07
2023-03-27T22:09:24.655Z,4.54
2023-03-27T22:11:56.928Z,4.94
2023-03-27T22:14:29.764Z,4.48
2023-03-27T22:16:59.964Z,4.69
2023-03-27T22:19:29.935Z,4.69
2023-03-27T22:21:59.911Z,4.70
2023-03-27T22:24:30.022Z,4.58
2023-03-27T22:27:00.105Z,4.68
2023-03-27T22:29:32.636Z,4.80
2023-03-27T22:32:02.582Z,4.91
2023-03-27T22:34:32.846Z,5.11
2023-03-27T22:37:02.835Z,5.03
2023-03-27T22:39:32.865Z,4.76
2023-03-27T22:42:02.840Z,5.01
2023-03-27T22:44:36.134Z,4.87
2023-03-27T22:47:06.200Z,4.99
2023-03-27T22:49:36.354Z,4.81
2023-03-27T22:52:06.984Z,5.26
2023-03-27T22:54:36.869Z,5.31
2023-03-27T22:57:07.060Z,5.44
2023-03-27T22:59:39.640Z,5.35
2023-03-27T23:02:09.754Z,5.33
2023-03-27T23:04:39.827Z,6.03
2023-03-27T23:07:10.123Z,5.74
2023-03-27T23:09:40.149Z,5.48
2023-03-27T23:12:10.378Z,5.93
2023-03-27T23:14:42.990Z,5.82
2023-03-27T23:17:13.008Z,5.76
2023-03-27T23:19:42.982Z,5.70
2023-03-27T23:22:12.982Z,5.78
2023-03-27T23:24:42.970Z,5.65
2023-03-27T23:27:12.951Z,5.86
2023-03-27T23:29:45.981Z,5.87
2023-03-27T23:32:16.128Z,5.82
2023-03-27T23:34:46.202Z,5.97
2023-03-27T23:37:16.210Z,5.80
2023-03-27T23:39:46.265Z,6.39
2023-03-27T23:42:16.345Z,6.21
2023-03-27T23:44:48.929Z,6.29
2023-03-27T23:47:18.872Z,6.29
2023-03-27T23:49:48.918Z,6.26
2023-03-27T23:52:18.812Z,6.43
2023-03-27T23:54:48.813Z,6.66
2023-03-27T23:57:18.903Z,6.38
2023-03-27T23:59:51.530Z,6.56
